Time;durP1;ratioP1;P1;durP2;ratioP2;P2;SDS_P1;SDS_P2;PMS_P1;PMS_P2;Temp;Humidity;BMP_temperature;BMP_pressure;BME280_temperature;BME280_humidity;BME280_pressure;Samples;Min_cycle;Max_cycle;Signal;HPM_P1;HPM_P2
2023/04/05 00:02:28;;;;;;;20.80;8.10;;;;;;;-128.00;-1.00;-1.00;97869;297;1003293;-33
2023/04/05 00:04:57;;;;;;;41.10;8.60;;;;;;;-128.00;-1.00;-1.00;97745;297;1005280;-34
2023/04/05 00:07:23;;;;;;;14.50;7.20;;;;;;;-128.00;-1.00;-1.00;97903;297;1004406;-32
2023/04/05 00:09:49;;;;;;;24.50;8.70;;;;;;;-128.00;-1.00;-1.00;97786;298;1003693;-28
2023/04/05 00:12:14;;;;;;;23.50;9.80;;;;;;;-128.00;-1.00;-1.00;97765;298;1003449;-33
2023/04/05 00:14:40;;;;;;;37.50;8.90;;;;;;;-128.00;-1.00;-1.00;97769;297;1003037;-33
2023/04/05 00:17:06;;;;;;;16.80;7.00;;;;;;;-128.00;-1.00;-1.00;97793;298;1003126;-33
2023/04/05 00:19:32;;;;;;;18.10;6.50;;;;;;;-128.00;-1.00;-1.00;97692;298;1003271;-29
2023/04/05 00:21:59;;;;;;;7.90;3.10;;;;;;;-128.00;-1.00;-1.00;97840;298;1003297;-29
2023/04/05 00:24:24;;;;;;;16.60;4.90;;;;;;;-128.00;-1.00;-1.00;97683;297;1002857;-28
2023/04/05 00:26:50;;;;;;;15.60;7.20;;;;;;;-128.00;-1.00;-1.00;97661;297;1004314;-35
2023/04/05 00:29:15;;;;;;;27.30;9.00;;;;;;;-128.00;-1.00;-1.00;97847;298;1003327;-34
2023/04/05 00:31:41;;;;;;;21.90;9.00;;;;;;;-128.00;-1.00;-1.00;97807;297;1003381;-28
2023/04/05 00:34:08;;;;;;;30.40;7.30;;;;;;;-128.00;-1.00;-1.00;97760;297;1003085;-29
2023/04/05 00:36:33;;;;;;;17.20;8.40;;;;;;;-128.00;-1.00;-1.00;97792;297;1003814;-29
2023/04/05 00:38:59;;;;;;;25.60;8.80;;;;;;;-128.00;-1.00;-1.00;97789;297;1002902;-29
2023/04/05 00:41:24;;;;;;;15.30;6.90;;;;;;;-128.00;-1.00;-1.00;97784;297;1003664;-29
2023/04/05 00:43:50;;;;;;;25.00;7.20;;;;;;;-128.00;-1.00;-1.00;97898;297;1003657;-33
2023/04/05 00:46:16;;;;;;;20.20;7.10;;;;;;;-128.00;-1.00;-1.00;97761;297;1004706;-28
2023/04/05 00:48:42;;;;;;;24.10;8.70;;;;;;;-128.00;-1.00;-1.00;97832;297;1002707;-35
2023/04/05 00:51:10;;;;;;;18.80;4.20;;;;;;;-128.00;-1.00;-1.00;97916;297;1003014;-28
2023/04/05 00:53:36;;;;;;;27.50;7.80;;;;;;;-128.00;-1.00;-1.00;97786;297;1002939;-33
2023/04/05 00:56:02;;;;;;;16.60;6.90;;;;;;;-128.00;-1.00;-1.00;97654;298;1003182;-30
2023/04/05 00:58:29;;;;;;;13.00;5.70;;;;;;;-128.00;-1.00;-1.00;97714;298;1003154;-34
2023/04/05 01:01:12;;;;;;;15.00;6.10;;;;;;;-128.00;-1.00;-1.00;97700;298;1003733;-34
2023/04/05 01:03:40;;;;;;;19.00;5.60;;;;;;;-128.00;-1.00;-1.00;97892;297;1003301;-32
2023/04/05 01:06:16;;;;;;;21.00;9.60;;;;;;;-128.00;-1.00;-1.00;97956;297;1004265;-32
2023/04/05 01:08:50;;;;;;;19.60;8.00;;;;;;;-128.00;-1.00;-1.00;97951;297;1002950;-34
2023/04/05 01:11:15;;;;;;;;;;;;;;;-128.00;-1.00;-1.00;97958;297;1003199;-33
2023/04/05 01:13:44;;;;;;;17.90;9.20;;;;;;;-128.00;-1.00;-1.00;97861;297;1003194;-30
2023/04/05 01:16:10;;;;;;;21.00;7.40;;;;;;;-128.00;-1.00;-1.00;97969;297;1004529;-29
2023/04/05 01:18:36;;;;;;;26.50;10.20;;;;;;;-128.00;-1.00;-1.00;97849;297;1002389;-30
2023/04/05 01:21:28;;;;;;;32.20;11.60;;;;;;;-128.00;-1.00;-1.00;97921;297;1005470;-35
2023/04/05 01:24:25;;;;;;;28.40;8.20;;;;;;;-128.00;-1.00;-1.00;97887;297;1003047;-34
2023/04/05 01:27:03;;;;;;;27.80;8.60;;;;;;;-128.00;-1.00;-1.00;97799;297;1003294;-29
2023/04/05 01:29:54;;;;;;;17.20;7.70;;;;;;;-128.00;-1.00;-1.00;97828;286;1004061;-36
2023/04/05 01:32:44;;;;;;;22.00;6.60;;;;;;;-128.00;-1.00;-1.00;97903;297;1003434;-28
2023/04/05 01:35:17;;;;;;;17.50;8.70;;;;;;;-128.00;-1.00;-1.00;97824;297;1003852;-34
2023/04/05 01:37:44;;;;;;;;;;;;;;;-128.00;-1.00;-1.00;97887;297;1003203;-28
2023/04/05 01:40:10;;;;;;;28.20;10.40;;;;;;;-128.00;-1.00;-1.00;97816;298;1004229;-33
2023/04/05 01:42:36;;;;;;;17.20;4.70;;;;;;;-128.00;-1.00;-1.00;97902;297;1004405;-29
2023/04/05 01:45:01;;;;;;;15.00;6.40;;;;;;;-128.00;-1.00;-1.00;97868;297;1003670;-32
2023/04/05 01:47:27;;;;;;;21.00;8.00;;;;;;;-128.00;-1.00;-1.00;97861;297;1003104;-31
2023/04/05 01:49:53;;;;;;;26.70;8.80;;;;;;;-128.00;-1.00;-1.00;97733;286;1004685;-33
2023/04/05 01:52:18;;;;;;;21.00;8.80;;;;;;;-128.00;-1.00;-1.00;97878;297;1003954;-33
2023/04/05 01:54:44;;;;;;;16.70;6.10;;;;;;;-128.00;-1.00;-1.00;97767;297;1002883;-29
2023/04/05 01:57:10;;;;;;;12.10;6.20;;;;;;;-128.00;-1.00;-1.00;97815;297;1003126;-33
2023/04/05 01:59:35;;;;;;;21.30;6.50;;;;;;;-128.00;-1.00;-1.00;97793;297;1004485;-33
2023/04/05 02:02:01;;;;;;;20.20;7.40;;;;;;;-128.00;-1.00;-1.00;97836;297;1003166;-28
2023/04/05 02:04:27;;;;;;;23.10;7.50;;;;;;;-128.00;-1.00;-1.00;97857;297;1003568;-33
2023/04/05 02:06:52;;;;;;;16.80;6.70;;;;;;;-128.00;-1.00;-1.00;97905;297;1003963;-34
2023/04/05 02:09:18;;;;;;;21.30;6.70;;;;;;;-128.00;-1.00;-1.00;97797;286;1003499;-27
2023/04/05 02:11:44;;;;;;;21.30;8.00;;;;;;;-128.00;-1.00;-1.00;97897;297;1002970;-29
2023/04/05 02:14:11;;;;;;;28.00;10.50;;;;;;;-128.00;-1.00;-1.00;97829;297;1003358;-29
2023/04/05 02:16:36;;;;;;;29.60;9.10;;;;;;;-128.00;-1.00;-1.00;97834;297;1003825;-32
2023/04/05 02:19:02;;;;;;;27.10;9.90;;;;;;;-128.00;-1.00;-1.00;97824;297;1003351;-34
2023/04/05 02:21:28;;;;;;;21.40;8.80;;;;;;;-128.00;-1.00;-1.00;97743;298;1004038;-35
2023/04/05 02:23:54;;;;;;;17.90;8.20;;;;;;;-128.00;-1.00;-1.00;97853;286;1004445;-32
2023/04/05 02:26:20;;;;;;;33.00;11.30;;;;;;;-128.00;-1.00;-1.00;97907;297;1004842;-33
2023/04/05 02:28:46;;;;;;;27.30;8.40;;;;;;;-128.00;-1.00;-1.00;97744;297;1003223;-33
2023/04/05 02:31:12;;;;;;;17.60;7.90;;;;;;;-128.00;-1.00;-1.00;97789;297;1004051;-29
2023/04/05 02:33:38;;;;;;;23.60;8.50;;;;;;;-128.00;-1.00;-1.00;97695;287;1002906;-32
2023/04/05 02:36:05;;;;;;;24.80;8.70;;;;;;;-128.00;-1.00;-1.00;97994;297;1004115;-28
2023/04/05 02:38:35;;;;;;;25.00;10.30;;;;;;;-128.00;-1.00;-1.00;97888;297;1003488;-29
2023/04/05 02:41:01;;;;;;;33.50;9.70;;;;;;;-128.00;-1.00;-1.00;97784;297;1003324;-36
2023/04/05 02:43:27;;;;;;;25.00;8.60;;;;;;;-128.00;-1.00;-1.00;97825;297;1002936;-32
2023/04/05 02:45:53;;;;;;;19.40;8.20;;;;;;;-128.00;-1.00;-1.00;97819;286;1002536;-29
2023/04/05 02:48:19;;;;;;;25.90;9.40;;;;;;;-128.00;-1.00;-1.00;97864;297;1004807;-36
2023/04/05 02:50:49;;;;;;;29.20;11.60;;;;;;;-128.00;-1.00;-1.00;97975;297;1004659;-29
2023/04/05 02:53:18;;;;;;;38.10;9.40;;;;;;;-128.00;-1.00;-1.00;97909;297;1003780;-29
2023/04/05 02:55:55;;;;;;;40.90;10.50;;;;;;;-128.00;-1.00;-1.00;97678;298;1003141;-28
2023/04/05 02:58:22;;;;;;;31.50;10.40;;;;;;;-128.00;-1.00;-1.00;97849;297;1003395;-28
2023/04/05 03:00:50;;;;;;;19.00;8.60;;;;;;;-128.00;-1.00;-1.00;97902;297;1003783;-35
2023/04/05 03:03:17;;;;;;;29.90;9.60;;;;;;;-128.00;-1.00;-1.00;97811;297;1003096;-34
2023/04/05 03:05:43;;;;;;;45.70;11.50;;;;;;;-128.00;-1.00;-1.00;97838;297;1004794;-29
2023/04/05 03:08:17;;;;;;;33.60;10.40;;;;;;;-128.00;-1.00;-1.00;97779;297;1005466;-32
2023/04/05 03:10:45;;;;;;;17.20;8.80;;;;;;;-128.00;-1.00;-1.00;97853;298;1003418;-29
2023/04/05 03:13:11;;;;;;;29.00;11.20;;;;;;;-128.00;-1.00;-1.00;97903;297;1003158;-32
2023/04/05 03:15:36;;;;;;;46.70;13.70;;;;;;;-128.00;-1.00;-1.00;97734;297;1003135;-33
2023/04/05 03:18:02;;;;;;;55.00;23.10;;;;;;;-128.00;-1.00;-1.00;97767;285;1003597;-32
2023/04/05 03:20:28;;;;;;;93.90;34.60;;;;;;;-128.00;-1.00;-1.00;97805;298;1003945;-29
2023/04/05 03:22:53;;;;;;;52.00;23.30;;;;;;;-128.00;-1.00;-1.00;97712;298;1003741;-29
2023/04/05 03:25:19;;;;;;;29.40;10.70;;;;;;;-128.00;-1.00;-1.00;97862;298;1003769;-33
2023/04/05 03:27:45;;;;;;;32.90;11.50;;;;;;;-128.00;-1.00;-1.00;97907;297;1003800;-33
2023/04/05 03:30:11;;;;;;;60.70;11.60;;;;;;;-128.00;-1.00;-1.00;97830;297;1005145;-28
2023/04/05 03:32:36;;;;;;;21.20;11.20;;;;;;;-128.00;-1.00;-1.00;97794;286;1004726;-33
2023/04/05 03:35:03;;;;;;;25.80;12.10;;;;;;;-128.00;-1.00;-1.00;97833;297;1002588;-33
2023/04/05 03:37:28;;;;;;;24.90;11.10;;;;;;;-128.00;-1.00;-1.00;97858;297;1003247;-29
2023/04/05 03:39:54;;;;;;;29.70;13.20;;;;;;;-128.00;-1.00;-1.00;97797;297;1003050;-33
2023/04/05 03:42:19;;;;;;;22.20;11.20;;;;;;;-128.00;-1.00;-1.00;97844;297;1003255;-33
2023/04/05 03:44:46;;;;;;;28.10;12.00;;;;;;;-128.00;-1.00;-1.00;97701;298;1002731;-28
2023/04/05 03:47:12;;;;;;;25.40;9.90;;;;;;;-128.00;-1.00;-1.00;97838;298;1004065;-35
2023/04/05 03:49:38;;;;;;;29.50;10.60;;;;;;;-128.00;-1.00;-1.00;97803;297;1003506;-29
2023/04/05 03:52:03;;;;;;;33.10;13.80;;;;;;;-128.00;-1.00;-1.00;97766;297;1002977;-30
2023/04/05 03:54:29;;;;;;;30.80;10.60;;;;;;;-128.00;-1.00;-1.00;97806;298;1003027;-35
2023/04/05 03:56:55;;;;;;;28.70;10.50;;;;;;;-128.00;-1.00;-1.00;97857;297;1003366;-29
2023/04/05 03:59:21;;;;;;;36.50;12.00;;;;;;;-128.00;-1.00;-1.00;97740;298;1003845;-34
2023/04/05 04:01:46;;;;;;;30.20;8.70;;;;;;;-128.00;-1.00;-1.00;97648;298;1003620;-29
2023/04/05 04:04:12;;;;;;;40.20;11.40;;;;;;;-128.00;-1.00;-1.00;97781;297;1002975;-33
2023/04/05 04:06:38;;;;;;;23.10;10.30;;;;;;;-128.00;-1.00;-1.00;97705;297;1003654;-33
2023/04/05 04:09:04;;;;;;;33.70;11.50;;;;;;;-128.00;-1.00;-1.00;97777;297;1003650;-32
2023/04/05 04:11:30;;;;;;;33.70;12.90;;;;;;;-128.00;-1.00;-1.00;97799;298;1002346;-29
2023/04/05 04:13:55;;;;;;;36.70;12.30;;;;;;;-128.00;-1.00;-1.00;97765;297;1002909;-29
2023/04/05 04:16:21;;;;;;;46.70;15.20;;;;;;;-128.00;-1.00;-1.00;97671;298;1003694;-33
2023/04/05 04:18:47;;;;;;;33.50;11.60;;;;;;;-128.00;-1.00;-1.00;97843;297;1003143;-34
2023/04/05 04:21:13;;;;;;;36.80;13.40;;;;;;;-128.00;-1.00;-1.00;97742;285;1003682;-33
2023/04/05 04:23:39;;;;;;;27.40;12.40;;;;;;;-128.00;-1.00;-1.00;97931;297;1004392;-28
2023/04/05 04:26:05;;;;;;;35.00;11.20;;;;;;;-128.00;-1.00;-1.00;97942;297;1003679;-34
2023/04/05 04:28:33;;;;;;;24.90;8.90;;;;;;;-128.00;-1.00;-1.00;97837;297;1003643;-35
2023/04/05 04:31:03;;;;;;;16.60;8.40;;;;;;;-128.00;-1.00;-1.00;97838;297;1005719;-33
2023/04/05 04:33:30;;;;;;;25.20;8.80;;;;;;;-128.00;-1.00;-1.00;97865;297;1004798;-35
2023/04/05 05:14:50;;;;;;;67.30;20.70;;;;;;;-103.45;19.20;19985.83;98286;296;1544431;-29
2023/04/05 05:17:16;;;;;;;39.60;16.90;;;;;;;-128.00;-1.00;-1.00;97424;297;1004022;-30
2023/04/05 05:19:42;;;;;;;35.00;14.00;;;;;;;-128.00;-1.00;-1.00;97754;296;1002840;-33
2023/04/05 05:22:07;;;;;;;32.60;15.20;;;;;;;-128.00;-1.00;-1.00;18459;296;7506065;-30
2023/04/05 05:24:33;;;;;;;45.50;14.00;;;;;;;-128.00;-1.00;-1.00;18497;296;7504366;-31
2023/04/05 05:26:59;;;;;;;29.40;12.00;;;;;;;-128.00;-1.00;-1.00;18492;348;7504237;-35
2023/04/05 05:29:25;;;;;;;44.60;15.60;;;;;;;-128.00;-1.00;-1.00;18445;296;7505196;-34
2023/04/05 05:31:51;;;;;;;32.00;14.30;;;;;;;-128.00;-1.00;-1.00;18472;296;7507784;-29
2023/04/05 05:34:18;;;;;;;40.00;16.10;;;;;;;-128.00;-1.00;-1.00;18892;296;7505760;-34
2023/04/05 05:36:44;;;;;;;35.90;12.90;;;;;;;-128.00;-1.00;-1.00;18482;288;7504765;-30
2023/04/05 05:39:10;;;;;;;29.20;11.70;;;;;;;-128.00;-1.00;-1.00;18502;284;7505767;-33
2023/04/05 05:41:36;;;;;;;29.00;14.90;;;;;;;-128.00;-1.00;-1.00;18471;288;7506464;-33
2023/04/05 05:44:01;;;;;;;44.10;19.50;;;;;;;-128.00;-1.00;-1.00;18450;296;7504600;-30
2023/04/05 05:46:27;;;;;;;65.70;28.90;;;;;;;-128.00;-1.00;-1.00;18472;296;7504352;-33
2023/04/05 05:48:53;;;;;;;37.30;15.60;;;;;;;-128.00;-1.00;-1.00;18884;284;7505123;-30
2023/04/05 05:51:19;;;;;;;42.70;15.60;;;;;;;-128.00;-1.00;-1.00;18854;288;7505931;-33
2023/04/05 05:53:46;;;;;;;34.30;17.40;;;;;;;-128.00;-1.00;-1.00;18877;296;7505072;-31
2023/04/05 05:56:12;;;;;;;43.80;15.70;;;;;;;-128.00;-1.00;-1.00;18876;348;7505389;-32
2023/04/05 05:58:38;;;;;;;37.20;14.20;;;;;;;-128.00;-1.00;-1.00;18878;296;7504911;-33
2023/04/05 06:01:10;;;;;;;29.80;15.40;;;;;;;-128.00;-1.00;-1.00;18860;298;7504503;-29
2023/04/05 06:03:36;;;;;;;21.20;13.00;;;;;;;-128.00;-1.00;-1.00;18443;299;7504426;-33
2023/04/05 06:06:04;;;;;;;27.20;10.60;;;;;;;-128.00;-1.00;-1.00;18445;291;7505740;-29
2023/04/05 06:08:30;;;;;;;38.30;13.20;;;;;;;-128.00;-1.00;-1.00;18447;296;7504593;-30
2023/04/05 06:10:57;;;;;;;33.20;15.00;;;;;;;-128.00;-1.00;-1.00;18501;288;7506227;-30
2023/04/05 06:13:23;;;;;;;31.60;14.40;;;;;;;-128.00;-1.00;-1.00;18461;296;7505754;-34
2023/04/05 06:15:49;;;;;;;45.10;13.60;;;;;;;-128.00;-1.00;-1.00;18468;300;7504555;-30
2023/04/05 06:18:15;;;;;;;27.40;13.60;;;;;;;-128.00;-1.00;-1.00;18489;296;7505987;-34
2023/04/05 06:20:43;;;;;;;22.60;11.10;;;;;;;-128.00;-1.00;-1.00;18499;289;7504976;-29
2023/04/05 06:23:09;;;;;;;28.40;11.70;;;;;;;-128.00;-1.00;-1.00;18467;296;7504704;-34
2023/04/05 06:25:35;;;;;;;32.40;12.30;;;;;;;-128.00;-1.00;-1.00;18473;285;7505154;-30
2023/04/05 06:28:02;;;;;;;25.00;11.60;;;;;;;-128.00;-1.00;-1.00;18476;336;7505979;-34
2023/04/05 06:30:27;;;;;;;29.90;11.80;;;;;;;-128.00;-1.00;-1.00;18461;285;7504642;-34
2023/04/05 06:32:53;;;;;;;30.00;12.80;;;;;;;-128.00;-1.00;-1.00;18461;298;7506011;-30
2023/04/05 06:35:20;;;;;;;30.00;11.50;;;;;;;-128.00;-1.00;-1.00;18468;289;7504350;-33
2023/04/05 06:37:46;;;;;;;31.00;12.80;;;;;;;-128.00;-1.00;-1.00;18461;349;7504663;-34
2023/04/05 06:40:12;;;;;;;39.50;11.40;;;;;;;-128.00;-1.00;-1.00;18474;289;7504687;-33
2023/04/05 06:42:38;;;;;;;23.60;10.90;;;;;;;-128.00;-1.00;-1.00;18504;296;7506008;-33
2023/04/05 06:45:05;;;;;;;28.50;11.10;;;;;;;-128.00;-1.00;-1.00;18857;342;7505373;-29
2023/04/05 06:47:33;;;;;;;24.40;12.20;;;;;;;-128.00;-1.00;-1.00;18464;289;7504597;-33
2023/04/05 06:49:59;;;;;;;43.70;13.40;;;;;;;-128.00;-1.00;-1.00;18458;298;7504922;-34
2023/04/05 06:52:25;;;;;;;29.50;12.80;;;;;;;-128.00;-1.00;-1.00;18863;306;7504846;-30
2023/04/05 06:54:51;;;;;;;30.30;13.90;;;;;;;-128.00;-1.00;-1.00;18866;348;7504429;-33
2023/04/05 06:57:17;;;;;;;32.50;12.80;;;;;;;-128.00;-1.00;-1.00;18863;289;7504549;-30
2023/04/05 06:59:44;;;;;;;32.40;11.50;;;;;;;-128.00;-1.00;-1.00;18859;297;7505000;-30
2023/04/05 07:02:10;;;;;;;23.70;10.90;;;;;;;-128.00;-1.00;-1.00;18463;289;7506093;-33
2023/04/05 07:04:36;;;;;;;26.20;12.00;;;;;;;-128.00;-1.00;-1.00;18472;348;7504324;-34
2023/04/05 07:07:02;;;;;;;29.50;11.60;;;;;;;-128.00;-1.00;-1.00;18496;348;7505584;-30
2023/04/05 07:09:31;;;;;;;28.30;9.10;;;;;;;-128.00;-1.00;-1.00;18453;289;7505146;-34
2023/04/05 07:11:58;;;;;;;19.70;11.10;;;;;;;-128.00;-1.00;-1.00;18487;285;7504521;-34
2023/04/05 07:14:24;;;;;;;30.00;13.60;;;;;;;-128.00;-1.00;-1.00;18491;285;7504793;-34
2023/04/05 07:16:51;;;;;;;38.90;13.50;;;;;;;-128.00;-1.00;-1.00;18478;285;7505072;-33
2023/04/05 07:19:17;;;;;;;22.90;13.10;;;;;;;-128.00;-1.00;-1.00;18479;284;7504891;-31
2023/04/05 07:21:43;;;;;;;22.90;12.10;;;;;;;-128.00;-1.00;-1.00;18461;297;7505690;-31
2023/04/05 07:24:09;;;;;;;29.60;12.60;;;;;;;-128.00;-1.00;-1.00;18470;296;7505869;-33
2023/04/05 07:26:36;;;;;;;28.00;12.20;;;;;;;-128.00;-1.00;-1.00;18481;296;7506375;-30
2023/04/05 07:29:03;;;;;;;19.50;11.60;;;;;;;-128.00;-1.00;-1.00;18462;296;7504900;-34
2023/04/05 07:31:28;;;;;;;20.50;11.20;;;;;;;-128.00;-1.00;-1.00;18501;296;7504734;-33
2023/04/05 07:33:54;;;;;;;43.80;19.80;;;;;;;-128.00;-1.00;-1.00;18478;298;7505633;-30
2023/04/05 07:36:20;;;;;;;47.90;18.10;;;;;;;-128.00;-1.00;-1.00;18458;297;7506095;-34
2023/04/05 07:38:46;;;;;;;50.10;21.10;;;;;;;-128.00;-1.00;-1.00;18453;296;7506016;-34
2023/04/05 07:41:11;;;;;;;43.10;18.50;;;;;;;-128.00;-1.00;-1.00;18446;296;7505037;-35
2023/04/05 07:43:37;;;;;;;34.10;15.90;;;;;;;-128.00;-1.00;-1.00;18464;298;7506214;-32
2023/04/05 07:46:03;;;;;;;47.90;19.80;;;;;;;-128.00;-1.00;-1.00;18475;304;7505563;-32
2023/04/05 07:48:29;;;;;;;33.70;15.30;;;;;;;-128.00;-1.00;-1.00;18478;308;7504940;-31
2023/04/05 07:50:55;;;;;;;37.10;16.80;;;;;;;-128.00;-1.00;-1.00;18492;296;7506605;-31
2023/04/05 07:53:20;;;;;;;32.90;15.90;;;;;;;-128.00;-1.00;-1.00;18481;296;7504445;-31
2023/04/05 07:55:46;;;;;;;31.70;15.50;;;;;;;-128.00;-1.00;-1.00;18862;349;7505268;-32
2023/04/05 07:58:13;;;;;;;45.30;20.70;;;;;;;-128.00;-1.00;-1.00;18868;349;7506192;-31
2023/04/05 08:00:40;;;;;;;26.80;14.50;;;;;;;-128.00;-1.00;-1.00;18869;296;7505080;-36
2023/04/05 08:03:06;;;;;;;32.10;16.00;;;;;;;-128.00;-1.00;-1.00;18477;285;7506164;-32
2023/04/05 08:05:32;;;;;;;29.80;15.20;;;;;;;-128.00;-1.00;-1.00;18874;285;7504749;-35
2023/04/05 08:07:58;;;;;;;32.20;15.60;;;;;;;-128.00;-1.00;-1.00;18862;296;7505536;-36
2023/04/05 08:10:24;;;;;;;33.70;14.70;;;;;;;-128.00;-1.00;-1.00;18884;289;7505376;-35
2023/04/05 08:12:51;;;;;;;43.40;20.90;;;;;;;-128.00;-1.00;-1.00;18862;289;7506198;-32
2023/04/05 08:15:17;;;;;;;39.60;21.40;;;;;;;-128.00;-1.00;-1.00;18876;289;7504738;-35
2023/04/05 08:17:44;;;;;;;32.10;15.90;;;;;;;-128.00;-1.00;-1.00;18869;289;7504797;-35
2023/04/05 08:20:10;;;;;;;27.70;14.10;;;;;;;-128.00;-1.00;-1.00;18871;342;7505135;-31
2023/04/05 08:22:36;;;;;;;27.40;11.10;;;;;;;-128.00;-1.00;-1.00;18462;304;7504484;-32
2023/04/05 08:25:02;;;;;;;19.60;11.80;;;;;;;-128.00;-1.00;-1.00;18870;296;7506048;-31
2023/04/05 08:27:28;;;;;;;23.50;11.80;;;;;;;-128.00;-1.00;-1.00;18891;296;7505002;-35
2023/04/05 08:29:55;;;;;;;21.30;11.10;;;;;;;-128.00;-1.00;-1.00;18878;289;7505021;-32
2023/04/05 08:32:21;;;;;;;21.60;10.40;;;;;;;-128.00;-1.00;-1.00;18873;304;7505053;-34
2023/04/05 08:34:48;;;;;;;20.70;10.50;;;;;;;-128.00;-1.00;-1.00;18885;296;7504892;-34
2023/04/05 08:37:14;;;;;;;19.30;8.80;;;;;;;-128.00;-1.00;-1.00;18889;296;7504172;-31
2023/04/05 08:39:40;;;;;;;9.60;5.00;;;;;;;-128.00;-1.00;-1.00;18865;349;7505459;-31
2023/04/05 08:42:13;;;;;;;19.70;7.30;;;;;;;-128.00;-1.00;-1.00;18870;296;7504758;-34
2023/04/05 08:44:39;;;;;;;12.10;5.70;;;;;;;-128.00;-1.00;-1.00;18464;297;7504688;-31
2023/04/05 08:47:04;;;;;;;14.10;5.80;;;;;;;-128.00;-1.00;-1.00;18471;289;7504652;-35
2023/04/05 08:49:30;;;;;;;8.10;4.60;;;;;;;-128.00;-1.00;-1.00;18455;289;7504987;-31
2023/04/05 08:51:56;;;;;;;4.90;3.00;;;;;;;-128.00;-1.00;-1.00;18456;298;7506035;-31
2023/04/05 08:54:22;;;;;;;5.60;3.30;;;;;;;-128.00;-1.00;-1.00;18861;289;7505197;-34
2023/04/05 08:56:48;;;;;;;7.90;3.60;;;;;;;-128.00;-1.00;-1.00;18878;297;7504135;-31
2023/04/05 08:59:15;;;;;;;8.40;3.30;;;;;;;-128.00;-1.00;-1.00;18906;289;7504589;-34
2023/04/05 09:01:47;;;;;;;11.70;3.00;;;;;;;-128.00;-1.00;-1.00;18474;285;7505871;-34
2023/04/05 09:04:26;;;;;;;13.50;4.40;;;;;;;-128.00;-1.00;-1.00;18494;296;7504463;-30
2023/04/05 09:06:52;;;;;;;5.50;3.70;;;;;;;-128.00;-1.00;-1.00;18456;308;7505129;-34
2023/04/05 09:09:18;;;;;;;17.20;5.60;;;;;;;-128.00;-1.00;-1.00;18445;297;7505005;-32
2023/04/05 09:11:43;;;;;;;5.10;3.00;;;;;;;-128.00;-1.00;-1.00;18474;285;7504219;-34
2023/04/05 09:14:10;;;;;;;6.60;4.60;;;;;;;-128.00;-1.00;-1.00;18466;300;7506006;-34
2023/04/05 09:16:40;;;;;;;15.10;6.50;;;;;;;-128.00;-1.00;-1.00;18445;298;7504696;-31
2023/04/05 09:19:06;;;;;;;22.40;6.60;;;;;;;-128.00;-1.00;-1.00;18442;298;7505118;-31
2023/04/05 09:21:56;;;;;;;133.70;90.60;;;;;;;-128.00;-1.00;-1.00;18459;298;7504608;-34
2023/04/05 09:24:35;;;;;;;35.60;8.80;;;;;;;-128.00;-1.00;-1.00;18468;320;7506035;-34
2023/04/05 09:27:11;;;;;;;23.10;11.60;;;;;;;-128.00;-1.00;-1.00;18459;296;7506050;-35
2023/04/05 09:29:38;;;;;;;7.00;4.60;;;;;;;-128.00;-1.00;-1.00;18490;285;7506005;-31
2023/04/05 09:32:04;;;;;;;19.60;8.10;;;;;;;-128.00;-1.00;-1.00;18457;285;7504461;-34
2023/04/05 09:34:31;;;;;;;19.40;8.50;;;;;;;-128.00;-1.00;-1.00;18466;289;7506882;-30
2023/04/05 09:36:58;;;;;;;22.20;16.60;;;;;;;-128.00;-1.00;-1.00;18431;296;7504750;-31
2023/04/05 09:39:28;;;;;;;12.80;6.80;;;;;;;-128.00;-1.00;-1.00;18487;296;7504785;-34
2023/04/05 09:42:10;;;;;;;8.40;4.50;;;;;;;-128.00;-1.00;-1.00;18488;296;7505209;-34
2023/04/05 09:45:01;;;;;;;5.50;3.90;;;;;;;-128.00;-1.00;-1.00;18466;296;7504878;-34
2023/04/05 09:47:33;;;;;;;8.30;4.60;;;;;;;-128.00;-1.00;-1.00;18458;296;7505116;-30
2023/04/05 09:49:59;;;;;;;14.60;4.80;;;;;;;-128.00;-1.00;-1.00;18482;296;7504747;-34
2023/04/05 09:52:30;;;;;;;8.70;4.80;;;;;;;-128.00;-1.00;-1.00;18445;296;7504891;-30
2023/04/05 09:54:57;;;;;;;9.80;2.80;;;;;;;-128.00;-1.00;-1.00;18460;297;7506228;-30
2023/04/05 09:57:28;;;;;;;19.00;7.90;;;;;;;-128.00;-1.00;-1.00;18475;296;7504324;-31
2023/04/05 09:59:53;;;;;;;4.10;1.60;;;;;;;-128.00;-1.00;-1.00;18481;296;7504520;-30
2023/04/05 10:02:20;;;;;;;4.50;2.70;;;;;;;-128.00;-1.00;-1.00;18489;296;7504401;-30
2023/04/05 10:04:47;;;;;;;10.10;3.10;;;;;;;-128.00;-1.00;-1.00;18466;298;7505019;-35
2023/04/05 10:07:13;;;;;;;7.70;4.00;;;;;;;-128.00;-1.00;-1.00;18466;311;7506285;-31
2023/04/05 10:09:40;;;;;;;32.90;12.30;;;;;;;-128.00;-1.00;-1.00;18426;344;7504678;-35
2023/04/05 10:12:06;;;;;;;10.30;5.00;;;;;;;-128.00;-1.00;-1.00;18453;296;7505005;-34
2023/04/05 10:14:32;;;;;;;9.00;3.40;;;;;;;-128.00;-1.00;-1.00;18477;296;7504274;-34
2023/04/05 10:17:08;;;;;;;3.10;2.10;;;;;;;-128.00;-1.00;-1.00;18512;289;7505742;-34
2023/04/05 10:19:40;;;;;;;5.10;3.30;;;;;;;-128.00;-1.00;-1.00;18453;296;7505772;-31
2023/04/05 10:22:09;;;;;;;4.10;2.10;;;;;;;-128.00;-1.00;-1.00;18468;320;7506283;-30
2023/04/05 10:24:39;;;;;;;5.50;3.10;;;;;;;-128.00;-1.00;-1.00;18459;298;7506262;-32
2023/04/05 10:27:10;;;;;;;10.50;4.70;;;;;;;-128.00;-1.00;-1.00;18504;285;7506341;-32
2023/04/05 10:29:50;;;;;;;12.10;3.60;;;;;;;-128.00;-1.00;-1.00;18473;296;7504315;-31
2023/04/05 10:32:26;;;;;;;4.70;3.30;;;;;;;-128.00;-1.00;-1.00;18464;296;7506029;-32
2023/04/05 10:34:58;;;;;;;13.30;7.40;;;;;;;-128.00;-1.00;-1.00;18494;296;7504161;-35
2023/04/05 10:37:30;;;;;;;5.90;2.20;;;;;;;-128.00;-1.00;-1.00;18473;296;7504779;-31
2023/04/05 10:39:55;;;;;;;5.90;3.50;;;;;;;-128.00;-1.00;-1.00;18462;297;7505066;-31
2023/04/05 10:42:26;;;;;;;6.00;2.50;;;;;;;-128.00;-1.00;-1.00;18843;296;7505837;-35
2023/04/05 10:44:54;;;;;;;3.20;2.70;;;;;;;-128.00;-1.00;-1.00;18476;296;7504776;-36
2023/04/05 10:47:20;;;;;;;4.10;2.60;;;;;;;-128.00;-1.00;-1.00;18476;296;7504017;-35
2023/04/05 10:49:47;;;;;;;2.60;1.70;;;;;;;-128.00;-1.00;-1.00;18478;296;7505877;-31
2023/04/05 10:52:13;;;;;;;3.90;2.60;;;;;;;-128.00;-1.00;-1.00;18453;298;7504643;-31
2023/04/05 10:54:38;;;;;;;3.80;2.30;;;;;;;-128.00;-1.00;-1.00;18461;289;7504486;-31
2023/04/05 10:57:05;;;;;;;2.30;1.90;;;;;;;-128.00;-1.00;-1.00;18470;289;7504659;-35
2023/04/05 10:59:32;;;;;;;3.00;1.60;;;;;;;-128.00;-1.00;-1.00;18483;296;7504756;-31
2023/04/05 11:01:57;;;;;;;3.60;1.80;;;;;;;-128.00;-1.00;-1.00;18472;298;7504684;-36
2023/04/05 11:46:32;;;;;;;3.60;2.20;;;;;;;-100.95;7.46;19971.99;98219;296;1544258;-33
2023/04/05 11:48:58;;;;;;;19.60;5.30;;;;;;;-128.00;-1.00;-1.00;97569;296;1004655;-31
2023/04/05 11:51:24;;;;;;;7.60;3.60;;;;;;;-128.00;-1.00;-1.00;97776;296;1003445;-36
2023/04/05 11:53:49;;;;;;;4.60;2.70;;;;;;;-128.00;-1.00;-1.00;97757;296;1003163;-29
2023/04/05 11:56:15;;;;;;;5.50;2.60;;;;;;;-128.00;-1.00;-1.00;97808;298;1002742;-29
2023/04/05 11:58:41;;;;;;;4.30;2.30;;;;;;;-128.00;-1.00;-1.00;97904;288;1003192;-35
2023/04/05 12:01:07;;;;;;;6.20;3.40;;;;;;;-128.00;-1.00;-1.00;97855;284;1003237;-33
2023/04/05 12:03:33;;;;;;;16.10;5.80;;;;;;;-128.00;-1.00;-1.00;97826;284;1003548;-34
2023/04/05 12:06:00;;;;;;;26.70;7.90;;;;;;;-128.00;-1.00;-1.00;97958;296;1005219;-33
2023/04/05 12:08:52;;;;;;;11.30;3.90;;;;;;;-128.00;-1.00;-1.00;97843;284;1004487;-29
2023/04/05 12:11:25;;;;;;;10.90;4.70;;;;;;;-128.00;-1.00;-1.00;97886;284;1005099;-33
2023/04/05 12:13:55;;;;;;;5.90;2.50;;;;;;;-128.00;-1.00;-1.00;97827;284;1004085;-34
2023/04/05 12:16:20;;;;;;;8.50;4.10;;;;;;;-128.00;-1.00;-1.00;97773;284;1004100;-30
2023/04/05 12:18:52;;;;;;;3.70;1.60;;;;;;;-128.00;-1.00;-1.00;97865;284;1003073;-33
2023/04/05 12:21:18;;;;;;;4.00;1.30;;;;;;;-128.00;-1.00;-1.00;97906;296;1003273;-29
2023/04/05 12:23:43;;;;;;;4.30;1.30;;;;;;;-128.00;-1.00;-1.00;97818;284;1004711;-33
2023/04/05 12:26:09;;;;;;;5.20;2.70;;;;;;;-128.00;-1.00;-1.00;97872;296;1002998;-34
2023/04/05 12:28:52;;;;;;;4.00;1.50;;;;;;;-128.00;-1.00;-1.00;97878;284;1002975;-29
2023/04/05 12:31:36;;;;;;;5.60;1.90;;;;;;;-128.00;-1.00;-1.00;97844;285;1004290;-29
2023/04/05 12:34:02;;;;;;;5.70;1.30;;;;;;;-128.00;-1.00;-1.00;97862;284;1004064;-28
2023/04/05 12:36:27;;;;;;;2.10;1.00;;;;;;;-128.00;-1.00;-1.00;97913;284;1002768;-35
2023/04/05 12:38:53;;;;;;;2.50;1.20;;;;;;;-128.00;-1.00;-1.00;97858;284;1004236;-29
2023/04/05 12:41:29;;;;;;;2.50;1.10;;;;;;;-128.00;-1.00;-1.00;97782;296;1005431;-33
2023/04/05 12:44:01;;;;;;;3.20;2.00;;;;;;;-128.00;-1.00;-1.00;97836;284;1004519;-34
2023/04/05 12:46:42;;;;;;;2.90;1.90;;;;;;;-128.00;-1.00;-1.00;97769;296;1003001;-29
2023/04/05 12:49:14;;;;;;;2.80;1.10;;;;;;;-128.00;-1.00;-1.00;97859;296;1005051;-29